Logrono/Agoncillo, Spain
Current Conditions -  °F | °C
As of 3:00 AM on Thursday 23 Oct 2014 (Local Time) from LELO Reporting Station
Clear Clear  
Wind Chill:   Ceiling: Unl
Heat Index:   Visibility: 6mi
Dew Point:   Wind: 10mph
Humidity: 82%   Direction: 280°W
Pressure: 30.36"   Gusts: NA
Location:  42.46°N, 2.31°W
Report Text: LELO 230100Z 28009KT CAVOK 09/06 Q1028
Loading
Personal Weather Stations






























Interactive Weather Map
Tropical Storm Tracking
New forecast layout! Learn more

10-Day Weather Forecast

Advertisements
Track Severe Weather on mobile